Time;durP1;ratioP1;P1;durP2;ratioP2;P2;SDS_P1;SDS_P2;PMS_P1;PMS_P2;Temp;Humidity;BMP_temperature;BMP_pressure;BME280_temperature;BME280_humidity;BME280_pressure;Samples;Min_cycle;Max_cycle;Signal;HPM_P1;HPM_P2
2022/10/22 00:01:13;;;;;;;;;;;;;;;;;;5094379;28;1778;-49
2022/10/22 00:03:41;;;;;;;;;;;;;;;;;;5094393;28;1858;-46
2022/10/22 00:06:08;;;;;;;;;;;;;;;;;;5094061;28;1416;-45
2022/10/22 00:08:35;;;;;;;;;;;;;;;;;;5094351;28;1725;-47
2022/10/22 00:11:12;;;;;;;;;;;;;;;;;;5094383;28;1796;-41
2022/10/22 00:13:40;;;;;;;;;;;;;;;;;;5094200;28;2067;-46
2022/10/22 00:16:07;;;;;;;;;;;;;;;;;;5094380;28;1566;-48
2022/10/22 00:18:34;;;;;;;;;;;;;;;;;;5109730;28;1812;-47
2022/10/22 00:21:03;;;;;;;;;;;;;;;;;;5094134;28;2244;-41
2022/10/22 00:23:30;;;;;;;;;;;;;;;;;;5094215;28;1636;-50
2022/10/22 00:25:57;;;;;;;;;;;;;;;;;;5094252;28;1648;-48
2022/10/22 00:28:25;;;;;;;;;;;;;;;;;;5094063;28;2092;-51
2022/10/22 00:30:58;;;;;;;;;;;;;;;;;;5094300;28;1419;-44
2022/10/22 00:33:26;;;;;;;;;;;;;;;;;;5094219;28;2012;-44
2022/10/22 00:35:54;;;;;;;;;;;;;;;;;;5093822;28;2087;-46
2022/10/22 00:38:21;;;;;;;;;;;;;;;;;;5093878;28;2040;-48
2022/10/22 00:40:48;;;;;;;;;;;;;;;;;;5094152;28;2396;-44
2022/10/22 00:43:16;;;;;;;;;;;;;;;;;;5093766;28;1661;-43
2022/10/22 00:45:44;;;;;;;;;;;;;;;;;;5093752;28;2137;-44
2022/10/22 00:48:11;;;;;;;;;;;;;;;;;;5093460;28;1768;-43
2022/10/22 00:50:38;;;;;;;;;;;;;;;;;;5093441;28;1696;-42
2022/10/22 00:53:07;;;;;;;;;;;;;;;;;;5093369;28;1931;-43
2022/10/22 00:55:34;;;;;;;;;;;;;;;;;;5093669;28;2089;-47
2022/10/22 00:58:02;;;;;;;;;;;;;;;;;;5093512;28;2535;-43
2022/10/22 01:00:29;;;;;;;;;;;;;;;;;;5093492;28;1676;-45
2022/10/22 01:02:56;;;;;;;;;;;;;;;;;;5093056;28;1651;-43
2022/10/22 01:05:28;;;;;;;;;;;;;;;;;;5093196;28;2101;-44
2022/10/22 01:07:55;;;;;;;;;;;;;;;;;;5093146;28;2035;-46
2022/10/22 01:10:25;;;;;;;;;;;;;;;;;;5093254;28;2028;-42
2022/10/22 01:13:11;;;;;;;;;;;;;;;;;;5093002;28;1930;-49
2022/10/22 01:15:44;;;;;;;;;;;;;;;;;;5093084;28;2039;-42
2022/10/22 01:18:18;;;;;;;;;;;;;;;;;;5093160;28;1365;-43
2022/10/22 01:20:45;;;;;;;;;;;;;;;;;;5092913;28;1806;-47
2022/10/22 01:23:14;;;;;;;;;;;;;;;;;;5093019;28;1655;-45
2022/10/22 01:25:42;;;;;;;;;;;;;;;;;;5092796;28;2062;-45
2022/10/22 01:28:22;;;;;;;;;;;;;;;;;;5092665;28;1787;-41
2022/10/22 01:30:50;;;;;;;;;;;;;;;;;;5092699;28;1705;-44
2022/10/22 01:33:18;;;;;;;;;;;;;;;;;;5099203;28;1934;-43
2022/10/22 01:35:45;;;;;;;;;;;;;;;;;;5113254;28;1548;-46
2022/10/22 01:38:16;;;;;;;;;;;;;;;;;;5112818;28;2162;-44
2022/10/22 01:40:43;;;;;;;;;;;;;;;;;;5113037;28;2125;-43
2022/10/22 01:43:10;;;;;;;;;;;;;;;;;;5112672;28;1967;-40
2022/10/22 01:45:40;;;;;;;;;;;;;;;;;;5105300;28;2056;-42
2022/10/22 01:48:07;;;;;;;;;;;;;;;;;;5092485;28;1400;-46
2022/10/22 01:50:41;;;;;;;;;;;;;;;;;;5092548;28;1818;-46
2022/10/22 01:53:08;;;;;;;;;;;;;;;;;;5091213;28;2149;-41
2022/10/22 01:55:40;;;;;;;;;;;;;;;;;;5092636;28;1994;-42
2022/10/22 01:58:26;;;;;;;;;;;;;;;;;;5092579;28;1471;-50
2022/10/22 02:00:59;;;;;;;;;;;;;;;;;;5092385;28;1823;-45
2022/10/22 02:03:33;;;;;;;;;;;;;;;;;;5091813;28;1599;-47
2022/10/22 02:06:03;;;;;;;;;;;;;;;;;;5092288;28;2088;-44
2022/10/22 02:08:31;;;;;;;;;;;;;;;;;;5092225;28;1783;-46
2022/10/22 02:10:59;;;;;;;;;;;;;;;;;;5090818;28;2021;-44
2022/10/22 02:13:29;;;;;;;;;;;;;;;;;;5091390;28;2005;-45
2022/10/22 02:15:56;;;;;;;;;;;;;;;;;;5091829;28;1886;-49
2022/10/22 02:18:26;;;;;;;;;;;;;;;;;;5092001;28;1961;-46
2022/10/22 02:20:55;;;;;;;;;;;;;;;;;;5092094;28;1777;-46
2022/10/22 02:23:22;;;;;;;;;;;;;;;;;;5091926;28;1912;-45
2022/10/22 02:25:52;;;;;;;;;;;;;;;;;;5091846;28;2141;-41
2022/10/22 02:28:22;;;;;;;;;;;;;;;;;;5091511;28;2407;-48
2022/10/22 02:30:54;;;;;;;;;;;;;;;;;;5091714;28;2100;-47
2022/10/22 02:33:23;;;;;;;;;;;;;;;;;;5091310;28;1987;-45
2022/10/22 02:35:51;;;;;;;;;;;;;;;;;;5091639;28;2140;-43
2022/10/22 02:38:18;;;;;;;;;;;;;;;;;;5091637;28;2007;-48
2022/10/22 02:40:45;;;;;;;;;;;;;;;;;;5091637;28;2169;-45
2022/10/22 02:43:12;;;;;;;;;;;;;;;;;;5091428;28;1248;-44
2022/10/22 02:45:39;;;;;;;;;;;;;;;;;;5091731;28;2005;-42
2022/10/22 02:48:07;;;;;;;;;;;;;;;;;;5091741;28;1844;-43
2022/10/22 02:50:34;;;;;;;;;;;;;;;;;;5091579;28;2139;-48
2022/10/22 02:53:01;;;;;;;;;;;;;;;;;;5091445;28;2210;-45
2022/10/22 02:55:28;;;;;;;;;;;;;;;;;;5091423;28;1650;-45
2022/10/22 02:57:55;;;;;;;;;;;;;;;;;;5091473;28;1769;-45
2022/10/22 03:00:22;;;;;;;;;;;;;;;;;;5091576;28;2037;-47
2022/10/22 03:02:52;;;;;;;;;;;;;;;;;;5091358;28;1531;-43
2022/10/22 03:05:19;;;;;;;;;;;;;;;;;;5091131;28;1835;-49
2022/10/22 03:07:46;;;;;;;;;;;;;;;;;;5089914;28;2006;-46
2022/10/22 03:10:13;;;;;;;;;;;;;;;;;;5091123;28;1923;-41
2022/10/22 03:12:40;;;;;;;;;;;;;;;;;;5091671;28;2287;-46
2022/10/22 03:15:07;;;;;;;;;;;;;;;;;;5089930;28;1961;-47
2022/10/22 03:17:34;;;;;;;;;;;;;;;;;;5091075;28;2192;-46
2022/10/22 03:20:01;;;;;;;;;;;;;;;;;;5091351;28;1434;-43
2022/10/22 03:22:29;;;;;;;;;;;;;;;;;;5090726;28;1834;-45
2022/10/22 03:24:58;;;;;;;;;;;;;;;;;;5091223;28;1620;-44
2022/10/22 03:27:27;;;;;;;;;;;;;;;;;;5094406;28;2030;-43
2022/10/22 03:29:54;;;;;;;;;;;;;;;;;;5095310;28;2297;-44
2022/10/22 03:32:21;;;;;;;;;;;;;;;;;;5095183;28;1936;-44
2022/10/22 03:34:48;;;;;;;;;;;;;;;;;;5114322;28;1773;-42
2022/10/22 03:37:15;;;;;;;;;;;;;;;;;;5115248;28;1836;-46
2022/10/22 03:39:43;;;;;;;;;;;;;;;;;;5115539;28;2008;-45
2022/10/22 03:42:12;;;;;;;;;;;;;;;;;;5115571;28;2086;-46
2022/10/22 03:44:39;;;;;;;;;;;;;;;;;;5115440;28;1780;-44
2022/10/22 03:47:06;;;;;;;;;;;;;;;;;;5115305;28;1659;-40
2022/10/22 03:49:33;;;;;;;;;;;;;;;;;;5115127;28;1950;-43
2022/10/22 03:52:07;;;;;;;;;;;;;;;;;;5115393;28;1834;-41
2022/10/22 03:54:34;;;;;;;;;;;;;;;;;;5115214;28;1919;-45
2022/10/22 03:57:02;;;;;;;;;;;;;;;;;;5115179;28;1612;-44
2022/10/22 03:59:33;;;;;;;;;;;;;;;;;;5115030;28;1666;-51
2022/10/22 04:02:00;;;;;;;;;;;;;;;;;;5114880;28;1818;-46
2022/10/22 04:04:28;;;;;;;;;;;;;;;;;;5114650;28;2023;-42
2022/10/22 04:06:55;;;;;;;;;;;;;;;;;;5114624;27;1969;-44
2022/10/22 04:09:22;;;;;;;;;;;;;;;;;;5114862;28;1673;-46
2022/10/22 04:11:49;;;;;;;;;;;;;;;;;;5114851;28;1690;-47
2022/10/22 04:14:16;;;;;;;;;;;;;;;;;;5114699;28;1934;-50
2022/10/22 04:16:43;;;;;;;;;;;;;;;;;;5114770;28;1908;-52
2022/10/22 04:19:10;;;;;;;;;;;;;;;;;;5114576;28;1715;-41
2022/10/22 04:21:37;;;;;;;;;;;;;;;;;;5114658;28;2092;-48
2022/10/22 04:24:04;;;;;;;;;;;;;;;;;;5114587;28;1885;-45
2022/10/22 04:26:32;;;;;;;;;;;;;;;;;;5114314;28;2185;-47
2022/10/22 04:28:58;;;;;;;;;;;;;;;;;;5114536;28;1792;-48
2022/10/22 04:31:26;;;;;;;;;;;;;;;;;;5114270;28;1955;-44
2022/10/22 04:33:54;;;;;;;;;;;;;;;;;;5102581;28;2073;-46
2022/10/22 04:36:22;;;;;;;;;;;;;;;;;;5093455;28;1713;-43
2022/10/22 04:38:57;;;;;;;;;;;;;;;;;;5093466;28;1955;-49
2022/10/22 04:41:29;;;;;;;;;;;;;;;;;;5093869;28;1801;-48
2022/10/22 04:43:56;;;;;;;;;;;;;;;;;;5093430;28;2129;-46
2022/10/22 04:46:24;;;;;;;;;;;;;;;;;;5093841;28;1820;-49
2022/10/22 04:48:51;;;;;;;;;;;;;;;;;;5093609;28;1954;-43
2022/10/22 04:51:19;;;;;;;;;;;;;;;;;;5093857;28;2247;-46
2022/10/22 04:53:47;;;;;;;;;;;;;;;;;;5093793;28;1906;-42
2022/10/22 04:56:20;;;;;;;;;;;;;;;;;;5093376;28;1809;-45
2022/10/22 04:58:48;;;;;;;;;;;;;;;;;;5093813;28;2134;-43
2022/10/22 05:01:16;;;;;;;;;;;;;;;;;;5093448;28;2163;-45
2022/10/22 05:03:44;;;;;;;;;;;;;;;;;;5093309;28;1530;-43
2022/10/22 05:06:11;;;;;;;;;;;;;;;;;;5092957;28;1983;-47
2022/10/22 05:08:43;;;;;;;;;;;;;;;;;;5093223;28;1711;-45
2022/10/22 05:11:11;;;;;;;;;;;;;;;;;;5093239;28;1542;-44
2022/10/22 05:13:39;;;;;;;;;;;;;;;;;;5091762;28;2137;-46
2022/10/22 05:16:06;;;;;;;;;;;;;;;;;;5093063;28;2022;-46
2022/10/22 05:18:34;;;;;;;;;;;;;;;;;;5093138;28;1705;-46
2022/10/22 05:21:02;;;;;;;;;;;;;;;;;;5093099;28;1840;-40
2022/10/22 05:23:29;;;;;;;;;;;;;;;;;;5092745;28;1541;-46
2022/10/22 05:25:56;;;;;;;;;;;;;;;;;;5093270;28;1774;-49
2022/10/22 05:28:25;;;;;;;;;;;;;;;;;;5092847;28;1947;-48
2022/10/22 05:30:57;;;;;;;;;;;;;;;;;;5091598;28;2261;-44
2022/10/22 05:33:25;;;;;;;;;;;;;;;;;;5095159;28;2099;-46
2022/10/22 05:35:52;;;;;;;;;;;;;;;;;;5093024;28;2042;-45
2022/10/22 05:38:19;;;;;;;;;;;;;;;;;;5092852;28;2116;-44
2022/10/22 05:40:47;;;;;;;;;;;;;;;;;;5092769;28;1573;-42
2022/10/22 05:43:14;;;;;;;;;;;;;;;;;;5092525;28;1436;-46
2022/10/22 05:45:41;;;;;;;;;;;;;;;;;;5092498;28;1961;-45
2022/10/22 05:48:08;;;;;;;;;;;;;;;;;;5091748;28;1466;-48
2022/10/22 05:50:36;;;;;;;;;;;;;;;;;;5092072;28;1986;-42
2022/10/22 05:53:03;;;;;;;;;;;;;;;;;;5092493;28;2338;-44
2022/10/22 05:55:35;;;;;;;;;;;;;;;;;;5092284;28;1835;-50
2022/10/22 05:58:03;;;;;;;;;;;;;;;;;;5092474;28;2029;-40
2022/10/22 06:00:30;;;;;;;;;;;;;;;;;;5091094;28;1926;-43
2022/10/22 06:02:57;;;;;;;;;;;;;;;;;;5092130;28;2124;-41
2022/10/22 06:05:24;;;;;;;;;;;;;;;;;;5091983;28;1740;-41
2022/10/22 06:07:51;;;;;;;;;;;;;;;;;;5092467;28;1258;-46
2022/10/22 06:10:19;;;;;;;;;;;;;;;;;;5092089;28;1813;-44
2022/10/22 06:12:46;;;;;;;;;;;;;;;;;;5092221;28;1714;-46
2022/10/22 06:15:16;;;;;;;;;;;;;;;;;;5091896;28;1902;-44
2022/10/22 06:17:44;;;;;;;;;;;;;;;;;;5092008;28;2277;-47
2022/10/22 06:20:11;;;;;;;;;;;;;;;;;;5092010;28;1871;-48
2022/10/22 06:22:38;;;;;;;;;;;;;;;;;;5091858;28;1925;-45
2022/10/22 06:25:07;;;;;;;;;;;;;;;;;;5091828;28;1518;-46
2022/10/22 06:27:34;;;;;;;;;;;;;;;;;;5098170;28;1911;-41
2022/10/22 06:30:01;;;;;;;;;;;;;;;;;;5110301;28;2222;-45
2022/10/22 06:32:28;;;;;;;;;;;;;;;;;;5112044;28;1831;-41
2022/10/22 06:34:55;;;;;;;;;;;;;;;;;;5091816;28;2396;-45
2022/10/22 06:37:22;;;;;;;;;;;;;;;;;;5092041;28;1623;-44
2022/10/22 06:39:49;;;;;;;;;;;;;;;;;;5091574;28;1887;-41
2022/10/22 06:42:16;;;;;;;;;;;;;;;;;;5091684;28;1927;-44
2022/10/22 06:44:46;;;;;;;;;;;;;;;;;;5091290;28;2056;-43
2022/10/22 06:47:13;;;;;;;;;;;;;;;;;;5091534;28;1995;-50
2022/10/22 06:49:41;;;;;;;;;;;;;;;;;;5091576;28;1791;-45
2022/10/22 06:52:08;;;;;;;;;;;;;;;;;;5095009;28;1931;-42
2022/10/22 06:54:35;;;;;;;;;;;;;;;;;;5111675;28;1975;-45
2022/10/22 06:57:02;;;;;;;;;;;;;;;;;;5111740;28;1786;-48
2022/10/22 06:59:29;;;;;;;;;;;;;;;;;;5111232;28;2155;-45
2022/10/22 07:01:57;;;;;;;;;;;;;;;;;;5111952;28;1571;-48
2022/10/22 07:04:24;;;;;;;;;;;;;;;;;;5112022;28;2201;-44
2022/10/22 07:06:53;;;;;;;;;;;;;;;;;;5111797;28;1993;-46
2022/10/22 07:09:21;;;;;;;;;;;;;;;;;;5111723;28;1983;-46
2022/10/22 07:11:47;;;;;;;;;;;;;;;;;;5111400;28;2244;-43
2022/10/22 07:14:14;;;;;;;;;;;;;;;;;;5111646;28;1910;-49
2022/10/22 07:16:42;;;;;;;;;;;;;;;;;;5111417;28;1328;-48
2022/10/22 07:19:09;;;;;;;;;;;;;;;;;;5111643;28;2081;-44
2022/10/22 07:21:36;;;;;;;;;;;;;;;;;;5111448;28;1697;-45
2022/10/22 07:24:03;;;;;;;;;;;;;;;;;;5111567;28;1989;-45
2022/10/22 07:26:31;;;;;;;;;;;;;;;;;;5111313;28;1953;-48
2022/10/22 07:28:59;;;;;;;;;;;;;;;;;;5111703;28;2017;-40
2022/10/22 07:31:28;;;;;;;;;;;;;;;;;;5111358;28;1979;-49
2022/10/22 07:33:55;;;;;;;;;;;;;;;;;;5099787;28;1909;-49
2022/10/22 07:36:22;;;;;;;;;;;;;;;;;;5089633;28;2019;-46
2022/10/22 07:38:53;;;;;;;;;;;;;;;;;;5090871;28;1687;-47
2022/10/22 07:41:20;;;;;;;;;;;;;;;;;;5091191;28;2261;-43
2022/10/22 07:43:47;;;;;;;;;;;;;;;;;;5091096;28;2336;-47
2022/10/22 07:46:14;;;;;;;;;;;;;;;;;;5091041;28;1879;-40
2022/10/22 07:48:41;;;;;;;;;;;;;;;;;;5090467;28;2176;-47
2022/10/22 07:51:08;;;;;;;;;;;;;;;;;;5090933;28;1710;-48
2022/10/22 07:53:35;;;;;;;;;;;;;;;;;;5090496;28;1999;-47
2022/10/22 07:56:03;;;;;;;;;;;;;;;;;;5090698;28;1773;-47
2022/10/22 07:58:30;;;;;;;;;;;;;;;;;;5091094;28;2136;-52
2022/10/22 08:00:59;;;;;;;;;;;;;;;;;;5090869;28;1669;-47
2022/10/22 08:03:27;;;;;;;;;;;;;;;;;;5090832;28;1945;-52
2022/10/22 08:05:54;;;;;;;;;;;;;;;;;;5090389;28;1932;-46
2022/10/22 08:08:21;;;;;;;;;;;;;;;;;;5090778;28;1963;-46
2022/10/22 08:10:51;;;;;;;;;;;;;;;;;;5090846;28;2074;-42
2022/10/22 08:13:18;;;;;;;;;;;;;;;;;;5093488;28;1828;-47
2022/10/22 08:15:46;;;;;;;;;;;;;;;;;;5094211;28;1912;-42
2022/10/22 08:18:16;;;;;;;;;;;;;;;;;;5093960;28;2011;-44
2022/10/22 08:20:43;;;;;;;;;;;;;;;;;;5094006;28;2044;-48
2022/10/22 08:23:10;;;;;;;;;;;;;;;;;;5094036;28;1381;-48
2022/10/22 08:25:37;;;;;;;;;;;;;;;;;;5094149;28;2171;-48
2022/10/22 08:28:04;;;;;;;;;;;;;;;;;;5093983;28;2078;-44
2022/10/22 08:30:32;;;;;;;;;;;;;;;;;;5094252;28;1968;-45
2022/10/22 08:32:59;;;;;;;;;;;;;;;;;;5094154;28;1851;-47
2022/10/22 08:35:26;;;;;;;;;;;;;;;;;;5094005;28;1918;-48
2022/10/22 08:37:53;;;;;;;;;;;;;;;;;;5093848;28;1776;-44
2022/10/22 08:40:29;;;;;;;;;;;;;;;;;;5093776;28;1995;-48
2022/10/22 08:42:56;;;;;;;;;;;;;;;;;;5093722;28;1877;-44
2022/10/22 08:45:37;;;;;;;;;;;;;;;;;;5093475;28;2008;-44
2022/10/22 08:48:20;;;;;;;;;;;;;;;;;;5093623;28;2215;-43
2022/10/22 08:50:49;;;;;;;;;;;;;;;;;;5093744;28;2022;-51
2022/10/22 08:53:17;;;;;;;;;;;;;;;;;;5093232;28;1764;-48
2022/10/22 08:55:44;;;;;;;;;;;;;;;;;;5093513;28;1967;-45
2022/10/22 08:58:16;;;;;;;;;;;;;;;;;;5093186;28;2079;-49
2022/10/22 09:01:18;;;;;;;;;;;;;;;;;;5093577;28;1900;-49
2022/10/22 09:03:57;;;;;;;;;;;;;;;;;;5070812;28;1956;-45
2022/10/22 09:06:26;;;;;;;;;;;;;;;;;;5090407;28;1548;-44
2022/10/22 09:08:53;;;;;;;;;;;;;;;;;;5093105;28;2235;-52
2022/10/22 09:11:20;;;;;;;;;;;;;;;;;;5093207;28;1693;-44
2022/10/22 09:13:48;;;;;;;;;;;;;;;;;;5093088;28;1667;-49
2022/10/22 09:16:21;;;;;;;;;;;;;;;;;;5092976;28;1898;-45
2022/10/22 09:18:52;;;;;;;;;;;;;;;;;;5092838;28;1480;-48
2022/10/22 09:21:31;;;;;;;;;;;;;;;;;;5093256;28;1821;-44
2022/10/22 09:24:10;;;;;;;;;;;;;;;;;;5092829;28;1796;-50
2022/10/22 09:26:39;;;;;;;;;;;;;;;;;;5093005;28;2170;-44
2022/10/22 09:29:12;;;;;;;;;;;;;;;;;;5092997;28;1467;-49
2022/10/22 09:31:39;;;;;;;;;;;;;;;;;;5093030;28;1929;-47
2022/10/22 09:34:06;;;;;;;;;;;;;;;;;;5092824;28;1920;-48
2022/10/22 09:36:33;;;;;;;;;;;;;;;;;;5092809;28;1784;-44
2022/10/22 09:39:01;;;;;;;;;;;;;;;;;;5092695;28;2193;-48
2022/10/22 09:41:29;;;;;;;;;;;;;;;;;;5092505;28;2154;-46
2022/10/22 09:43:56;;;;;;;;;;;;;;;;;;5092649;28;2015;-48
2022/10/22 09:46:27;;;;;;;;;;;;;;;;;;5092633;28;2026;-45
2022/10/22 09:48:59;;;;;;;;;;;;;;;;;;5092477;28;2316;-47
2022/10/22 09:51:35;;;;;;;;;;;;;;;;;;5092521;28;1749;-49
2022/10/22 09:54:13;;;;;;;;;;;;;;;;;;5092262;28;1906;-52
2022/10/22 09:56:40;;;;;;;;;;;;;;;;;;5092233;28;1862;-46
2022/10/22 09:59:14;;;;;;;;;;;;;;;;;;5092389;28;2048;-47
2022/10/22 10:01:42;;;;;;;;;;;;;;;;;;5092268;28;1794;-48
2022/10/22 10:04:10;;;;;;;;;;;;;;;;;;5092371;28;1987;-45
2022/10/22 10:06:39;;;;;;;;;;;;;;;;;;5092167;28;1949;-50
2022/10/22 10:09:23;;;;;;;;;;;;;;;;;;5092279;28;1915;-46
2022/10/22 10:11:55;;;;;;;;;;;;;;;;;;5091981;28;1743;-51
2022/10/22 10:14:25;;;;;;;;;;;;;;;;;;5091912;28;1977;-48
2022/10/22 10:16:58;;;;;;;;;;;;;;;;;;5092153;28;1676;-49
2022/10/22 10:19:37;;;;;;;;;;;;;;;;;;5091871;28;1841;-43
2022/10/22 10:22:30;;;;;;;;;;;;;;;;;;5092198;28;1907;-45
2022/10/22 10:25:07;;;;;;;;;;;;;;;;;;5091758;28;1902;-51
2022/10/22 10:27:37;;;;;;;;;;;;;;;;;;5091645;28;2006;-48
2022/10/22 10:30:08;;;;;;;;;;;;;;;;;;5091931;28;1817;-50
2022/10/22 10:32:53;;;;;;;;;;;;;;;;;;5092336;28;1483;-50
2022/10/22 10:35:29;;;;;;;;;;;;;;;;;;5111579;28;2247;-47
2022/10/22 10:37:59;;;;;;;;;;;;;;;;;;5110532;28;2143;-49
2022/10/22 10:40:45;;;;;;;;;;;;;;;;;;5112210;28;1898;-51
2022/10/22 10:43:16;;;;;;;;;;;;;;;;;;5111908;28;1752;-44
2022/10/22 10:45:58;;;;;;;;;;;;;;;;;;5112085;28;2064;-49
2022/10/22 10:48:32;;;;;;;;;;;;;;;;;;5111562;28;1371;-40
2022/10/22 10:51:06;;;;;;;;;;;;;;;;;;5104892;28;1298;-50
2022/10/22 10:53:35;;;;;;;;;;;;;;;;;;5091296;28;2137;-48
2022/10/22 10:56:05;;;;;;;;;;;;;;;;;;5091240;28;1914;-50
2022/10/22 10:58:44;;;;;;;;;;;;;;;;;;5091823;28;1791;-46
2022/10/22 11:01:11;;;;;;;;;;;;;;;;;;5092038;28;1961;-43
2022/10/22 11:03:41;;;;;;;;;;;;;;;;;;5091297;28;2151;-51
2022/10/22 11:06:10;;;;;;;;;;;;;;;;;;5091494;28;1786;-51
2022/10/22 11:08:40;;;;;;;;;;;;;;;;;;5091402;28;1523;-49
2022/10/22 11:11:11;;;;;;;;;;;;;;;;;;5089902;28;2000;-49
2022/10/22 11:13:47;;;;;;;;;;;;;;;;;;5091583;28;1943;-50
2022/10/22 11:16:26;;;;;;;;;;;;;;;;;;5091199;28;1910;-48
2022/10/22 11:19:05;;;;;;;;;;;;;;;;;;5091065;28;2039;-50
2022/10/22 11:21:32;;;;;;;;;;;;;;;;;;5091273;28;1707;-51
2022/10/22 11:24:02;;;;;;;;;;;;;;;;;;5090948;28;1359;-46
2022/10/22 11:26:40;;;;;;;;;;;;;;;;;;5090991;28;1809;-44
2022/10/22 11:29:10;;;;;;;;;;;;;;;;;;5090687;28;1780;-42
2022/10/22 11:31:37;;;;;;;;;;;;;;;;;;5091259;28;2202;-46
2022/10/22 11:34:17;;;;;;;;;;;;;;;;;;5090962;28;1707;-47
2022/10/22 11:37:00;;;;;;;;;;;;;;;;;;5090968;28;1904;-45
2022/10/22 11:39:38;;;;;;;;;;;;;;;;;;5091197;28;1633;-46
2022/10/22 11:42:08;;;;;;;;;;;;;;;;;;5090884;28;2211;-43
2022/10/22 11:44:46;;;;;;;;;;;;;;;;;;5090889;28;2043;-48
2022/10/22 11:47:23;;;;;;;;;;;;;;;;;;5092559;28;2150;-49
2022/10/22 11:50:17;;;;;;;;;;;;;;;;;;5094713;28;1858;-46
2022/10/22 11:53:04;;;;;;;;;;;;;;;;;;5093846;28;1621;-49
2022/10/22 11:55:54;;;;;;;;;;;;;;;;;;5094731;28;1908;-48
2022/10/22 11:58:26;;;;;;;;;;;;;;;;;;5094404;28;1439;-50
2022/10/22 12:01:13;;;;;;;;;;;;;;;;;;5094804;28;2056;-46
2022/10/22 12:03:42;;;;;;;;;;;;;;;;;;5090551;28;1686;-45
2022/10/22 12:06:10;;;;;;;;;;;;;;;;;;5094483;28;1670;-50
2022/10/22 12:08:45;;;;;;;;;;;;;;;;;;5094581;28;2186;-50
2022/10/22 12:11:14;;;;;;;;;;;;;;;;;;5094617;28;1871;-51
2022/10/22 12:14:00;;;;;;;;;;;;;;;;;;5094346;28;1660;-49
2022/10/22 12:16:47;;;;;;;;;;;;;;;;;;5094048;28;2193;-49
2022/10/22 12:19:22;;;;;;;;;;;;;;;;;;5094166;28;2156;-47
2022/10/22 12:22:02;;;;;;;;;;;;;;;;;;5094157;28;2118;-48
2022/10/22 12:24:30;;;;;;;;;;;;;;;;;;5094090;28;1809;-50
2022/10/22 12:26:58;;;;;;;;;;;;;;;;;;5093903;28;1993;-49
2022/10/22 12:29:26;;;;;;;;;;;;;;;;;;5093972;28;1936;-42
2022/10/22 12:31:54;;;;;;;;;;;;;;;;;;5094117;28;1925;-49
2022/10/22 12:34:22;;;;;;;;;;;;;;;;;;5109401;28;1486;-46
2022/10/22 12:36:51;;;;;;;;;;;;;;;;;;5114075;28;1902;-50
2022/10/22 12:39:20;;;;;;;;;;;;;;;;;;5114343;28;2077;-43
2022/10/22 12:41:47;;;;;;;;;;;;;;;;;;5114435;28;1947;-48
2022/10/22 12:44:16;;;;;;;;;;;;;;;;;;5114426;28;1703;-49
2022/10/22 12:46:44;;;;;;;;;;;;;;;;;;5114370;28;2007;-46
2022/10/22 12:49:17;;;;;;;;;;;;;;;;;;5114012;28;1928;-43
2022/10/22 12:51:45;;;;;;;;;;;;;;;;;;5114338;28;1564;-44
2022/10/22 12:54:26;;;;;;;;;;;;;;;;;;5113849;28;1400;-44
2022/10/22 12:56:54;;;;;;;;;;;;;;;;;;5113831;28;1910;-50
2022/10/22 12:59:27;;;;;;;;;;;;;;;;;;5113416;28;2121;-52
2022/10/22 13:01:56;;;;;;;;;;;;;;;;;;5113738;28;2181;-41
2022/10/22 13:04:32;;;;;;;;;;;;;;;;;;5113512;28;2143;-48
2022/10/22 13:07:11;;;;;;;;;;;;;;;;;;5113584;28;1982;-46
2022/10/22 13:09:56;;;;;;;;;;;;;;;;;;5113620;28;2109;-43
2022/10/22 13:12:24;;;;;;;;;;;;;;;;;;5113417;28;1936;-44
2022/10/22 13:14:52;;;;;;;;;;;;;;;;;;5113702;27;1449;-46
2022/10/22 13:17:35;;;;;;;;;;;;;;;;;;5113620;28;1878;-48
2022/10/22 13:20:05;;;;;;;;;;;;;;;;;;5113529;28;1800;-44
2022/10/22 13:22:33;;;;;;;;;;;;;;;;;;5113184;28;1805;-45
2022/10/22 13:25:18;;;;;;;;;;;;;;;;;;5113473;28;1885;-46
2022/10/22 13:27:46;;;;;;;;;;;;;;;;;;5113410;27;1896;-48
2022/10/22 13:30:24;;;;;;;;;;;;;;;;;;5112939;28;1843;-47
2022/10/22 13:32:53;;;;;;;;;;;;;;;;;;5110292;28;1842;-46
2022/10/22 13:35:22;;;;;;;;;;;;;;;;;;5092926;28;1915;-48
2022/10/22 13:37:49;;;;;;;;;;;;;;;;;;5092898;28;2023;-44
2022/10/22 13:40:16;;;;;;;;;;;;;;;;;;5092857;28;1803;-46
2022/10/22 13:42:43;;;;;;;;;;;;;;;;;;5092437;28;1857;-46
2022/10/22 13:45:11;;;;;;;;;;;;;;;;;;5092485;28;1816;-43
2022/10/22 13:47:38;;;;;;;;;;;;;;;;;;5092543;28;1448;-52
2022/10/22 13:50:24;;;;;;;;;;;;;;;;;;5092417;28;1622;-50
2022/10/22 13:52:55;;;;;;;;;;;;;;;;;;5092619;28;1778;-48
2022/10/22 13:55:29;;;;;;;;;;;;;;;;;;5092314;28;1988;-47
2022/10/22 13:57:58;;;;;;;;;;;;;;;;;;5105174;28;1537;-46
2022/10/22 14:00:25;;;;;;;;;;;;;;;;;;5112862;28;2023;-45
2022/10/22 14:02:55;;;;;;;;;;;;;;;;;;5112913;28;1794;-49
2022/10/22 14:05:24;;;;;;;;;;;;;;;;;;5112688;28;1952;-53
2022/10/22 14:07:51;;;;;;;;;;;;;;;;;;5112718;28;1902;-47
2022/10/22 14:10:20;;;;;;;;;;;;;;;;;;5111696;28;1701;-44
2022/10/22 14:12:48;;;;;;;;;;;;;;;;;;5112188;28;1866;-44
2022/10/22 14:15:18;;;;;;;;;;;;;;;;;;5112645;28;1913;-47
2022/10/22 14:17:48;;;;;;;;;;;;;;;;;;5112427;28;2202;-41
2022/10/22 14:20:18;;;;;;;;;;;;;;;;;;5112345;28;1946;-46
2022/10/22 14:22:45;;;;;;;;;;;;;;;;;;5112308;28;1499;-50
2022/10/22 14:25:13;;;;;;;;;;;;;;;;;;5111879;28;1980;-47
2022/10/22 14:27:40;;;;;;;;;;;;;;;;;;5112396;28;1751;-46
2022/10/22 14:30:09;;;;;;;;;;;;;;;;;;5111903;28;1966;-47
2022/10/22 14:32:36;;;;;;;;;;;;;;;;;;5111362;28;1545;-47
2022/10/22 14:35:04;;;;;;;;;;;;;;;;;;5091753;28;1275;-50
2022/10/22 14:37:31;;;;;;;;;;;;;;;;;;5091397;28;1926;-48
2022/10/22 14:40:01;;;;;;;;;;;;;;;;;;5091340;28;1913;-45
2022/10/22 14:42:28;;;;;;;;;;;;;;;;;;5091767;28;1875;-50
2022/10/22 14:44:55;;;;;;;;;;;;;;;;;;5091822;28;2035;-49
2022/10/22 14:47:23;;;;;;;;;;;;;;;;;;5091932;28;1853;-45
2022/10/22 14:49:50;;;;;;;;;;;;;;;;;;5090036;28;1946;-47
2022/10/22 14:52:18;;;;;;;;;;;;;;;;;;5091201;28;2120;-41
2022/10/22 14:54:47;;;;;;;;;;;;;;;;;;5091218;28;1768;-50
2022/10/22 14:57:15;;;;;;;;;;;;;;;;;;5091234;28;2440;-45
2022/10/22 14:59:42;;;;;;;;;;;;;;;;;;5091452;28;2098;-48
2022/10/22 15:02:12;;;;;;;;;;;;;;;;;;5091321;28;2171;-46
2022/10/22 15:04:39;;;;;;;;;;;;;;;;;;5090956;28;2038;-49
2022/10/22 15:07:06;;;;;;;;;;;;;;;;;;5091221;28;2203;-45
2022/10/22 15:09:33;;;;;;;;;;;;;;;;;;5091296;28;1834;-51
2022/10/22 15:12:00;;;;;;;;;;;;;;;;;;5091371;28;1856;-51
2022/10/22 15:14:27;;;;;;;;;;;;;;;;;;5091199;28;1954;-52
2022/10/22 15:16:55;;;;;;;;;;;;;;;;;;5091345;28;1916;-48
2022/10/22 15:19:22;;;;;;;;;;;;;;;;;;5090842;28;2191;-49
2022/10/22 15:21:49;;;;;;;;;;;;;;;;;;5093689;28;1837;-43
2022/10/22 15:24:16;;;;;;;;;;;;;;;;;;5095334;28;1445;-49
2022/10/22 15:26:43;;;;;;;;;;;;;;;;;;5095109;28;1960;-49
2022/10/22 15:29:10;;;;;;;;;;;;;;;;;;5095146;28;1749;-45
2022/10/22 15:31:52;;;;;;;;;;;;;;;;;;5095217;28;1969;-43
2022/10/22 15:34:21;;;;;;;;;;;;;;;;;;5105076;28;1875;-49
2022/10/22 15:36:48;;;;;;;;;;;;;;;;;;5095035;28;1990;-46
2022/10/22 15:39:16;;;;;;;;;;;;;;;;;;5095049;28;1844;-45
2022/10/22 15:41:45;;;;;;;;;;;;;;;;;;5094867;28;2109;-45
2022/10/22 15:44:21;;;;;;;;;;;;;;;;;;5094934;28;1541;-46
2022/10/22 15:46:49;;;;;;;;;;;;;;;;;;5095024;28;1480;-43
2022/10/22 15:49:25;;;;;;;;;;;;;;;;;;5094702;28;2110;-47
2022/10/22 15:51:52;;;;;;;;;;;;;;;;;;5093737;28;1508;-47
2022/10/22 15:54:21;;;;;;;;;;;;;;;;;;5094552;28;1820;-44
2022/10/22 15:56:50;;;;;;;;;;;;;;;;;;5094394;28;1910;-49
2022/10/22 15:59:17;;;;;;;;;;;;;;;;;;5094728;28;1742;-48
2022/10/22 16:01:44;;;;;;;;;;;;;;;;;;5094605;28;1929;-49
2022/10/22 16:04:12;;;;;;;;;;;;;;;;;;5094479;28;1783;-50
2022/10/22 16:06:43;;;;;;;;;;;;;;;;;;5094350;28;1902;-46
2022/10/22 16:09:12;;;;;;;;;;;;;;;;;;5094342;28;1992;-46
2022/10/22 16:11:39;;;;;;;;;;;;;;;;;;5094289;28;2168;-43
2022/10/22 16:14:08;;;;;;;;;;;;;;;;;;5094513;28;2012;-48
2022/10/22 16:16:35;;;;;;;;;;;;;;;;;;5094146;28;1906;-48
2022/10/22 16:19:09;;;;;;;;;;;;;;;;;;5094030;28;2119;-44
2022/10/22 16:21:37;;;;;;;;;;;;;;;;;;5094173;28;1415;-45
2022/10/22 16:24:05;;;;;;;;;;;;;;;;;;5094141;28;1903;-52
2022/10/22 16:26:33;;;;;;;;;;;;;;;;;;5094137;28;1508;-42
2022/10/22 16:29:00;;;;;;;;;;;;;;;;;;5094265;28;2054;-47
2022/10/22 16:31:27;;;;;;;;;;;;;;;;;;5094128;28;2154;-44
2022/10/22 16:33:54;;;;;;;;;;;;;;;;;;5093424;28;1619;-47
2022/10/22 16:36:21;;;;;;;;;;;;;;;;;;5093691;28;1910;-52
2022/10/22 16:38:49;;;;;;;;;;;;;;;;;;5093800;28;1757;-51
2022/10/22 16:41:18;;;;;;;;;;;;;;;;;;5093359;28;2092;-49
2022/10/22 16:43:48;;;;;;;;;;;;;;;;;;5093607;28;1931;-47
2022/10/22 16:46:16;;;;;;;;;;;;;;;;;;5091334;28;2012;-46
2022/10/22 16:48:49;;;;;;;;;;;;;;;;;;5093592;28;2233;-44
2022/10/22 16:51:20;;;;;;;;;;;;;;;;;;5093392;28;1868;-46
2022/10/22 16:53:53;;;;;;;;;;;;;;;;;;5093258;28;2038;-48
2022/10/22 16:56:20;;;;;;;;;;;;;;;;;;5093211;28;1979;-48
2022/10/22 16:58:49;;;;;;;;;;;;;;;;;;5092724;28;2021;-46
2022/10/22 17:01:16;;;;;;;;;;;;;;;;;;5093197;28;2192;-49
2022/10/22 17:03:45;;;;;;;;;;;;;;;;;;5091687;28;2637;-50
2022/10/22 17:06:12;;;;;;;;;;;;;;;;;;5093656;28;2124;-50
2022/10/22 17:08:40;;;;;;;;;;;;;;;;;;5093389;28;1995;-49
2022/10/22 17:11:10;;;;;;;;;;;;;;;;;;5093220;28;1891;-54
2022/10/22 17:13:38;;;;;;;;;;;;;;;;;;5093339;28;2151;-50
2022/10/22 17:16:07;;;;;;;;;;;;;;;;;;5092929;28;1905;-45
2022/10/22 17:18:38;;;;;;;;;;;;;;;;;;5093064;28;1805;-51
2022/10/22 17:21:06;;;;;;;;;;;;;;;;;;5093104;28;2134;-50